sensor_id;sensor_type;location;lat;lon;timestamp;P1;durP1;ratioP1;P2;durP2;ratioP2
5811;SDS011;2932;52.400;9.558;2023-04-29T00:00:06;36.67;;;20.43;;
5811;SDS011;2932;52.400;9.558;2023-04-29T00:02:31;33.47;;;19.93;;
5811;SDS011;2932;52.400;9.558;2023-04-29T00:04:57;36.87;;;20.93;;
5811;SDS011;2932;52.400;9.558;2023-04-29T00:07:22;38.67;;;21.17;;
5811;SDS011;2932;52.400;9.558;2023-04-29T00:09:48;39.37;;;22.07;;
5811;SDS011;2932;52.400;9.558;2023-04-29T00:12:13;40.43;;;21.60;;
5811;SDS011;2932;52.400;9.558;2023-04-29T00:14:38;38.00;;;21.10;;
5811;SDS011;2932;52.400;9.558;2023-04-29T00:17:04;38.07;;;20.47;;
5811;SDS011;2932;52.400;9.558;2023-04-29T00:19:29;45.00;;;23.07;;
5811;SDS011;2932;52.400;9.558;2023-04-29T00:21:55;39.73;;;22.97;;
5811;SDS011;2932;52.400;9.558;2023-04-29T00:24:20;39.53;;;21.67;;
5811;SDS011;2932;52.400;9.558;2023-04-29T00:26:45;38.90;;;21.70;;
5811;SDS011;2932;52.400;9.558;2023-04-29T00:29:11;42.03;;;22.93;;
5811;SDS011;2932;52.400;9.558;2023-04-29T00:31:36;39.77;;;21.30;;
5811;SDS011;2932;52.400;9.558;2023-04-29T00:34:02;37.40;;;20.37;;
5811;SDS011;2932;52.400;9.558;2023-04-29T00:36:27;34.93;;;19.97;;
5811;SDS011;2932;52.400;9.558;2023-04-29T00:38:53;37.40;;;21.23;;
5811;SDS011;2932;52.400;9.558;2023-04-29T00:41:19;36.43;;;20.63;;
5811;SDS011;2932;52.400;9.558;2023-04-29T00:43:45;37.70;;;20.40;;
5811;SDS011;2932;52.400;9.558;2023-04-29T00:46:10;37.97;;;20.67;;
5811;SDS011;2932;52.400;9.558;2023-04-29T00:48:35;36.50;;;19.97;;
5811;SDS011;2932;52.400;9.558;2023-04-29T00:51:01;33.33;;;19.17;;
5811;SDS011;2932;52.400;9.558;2023-04-29T00:53:28;39.43;;;20.70;;
5811;SDS011;2932;52.400;9.558;2023-04-29T00:55:53;40.10;;;21.13;;
5811;SDS011;2932;52.400;9.558;2023-04-29T00:58:20;36.83;;;20.80;;
5811;SDS011;2932;52.400;9.558;2023-04-29T01:00:46;35.83;;;20.17;;
5811;SDS011;2932;52.400;9.558;2023-04-29T01:03:12;38.37;;;21.00;;
5811;SDS011;2932;52.400;9.558;2023-04-29T01:05:38;36.17;;;19.53;;
5811;SDS011;2932;52.400;9.558;2023-04-29T01:11:07;35.07;;;19.33;;
5811;SDS011;2932;52.400;9.558;2023-04-29T01:13:50;36.90;;;20.20;;
5811;SDS011;2932;52.400;9.558;2023-04-29T01:16:24;34.90;;;19.37;;
5811;SDS011;2932;52.400;9.558;2023-04-29T01:18:58;34.07;;;20.10;;
5811;SDS011;2932;52.400;9.558;2023-04-29T01:21:31;32.53;;;18.73;;
5811;SDS011;2932;52.400;9.558;2023-04-29T01:23:56;33.87;;;19.33;;
5811;SDS011;2932;52.400;9.558;2023-04-29T01:26:22;31.73;;;18.63;;
5811;SDS011;2932;52.400;9.558;2023-04-29T01:31:51;26.93;;;16.13;;
5811;SDS011;2932;52.400;9.558;2023-04-29T01:34:56;29.40;;;17.20;;
5811;SDS011;2932;52.400;9.558;2023-04-29T01:39:59;30.03;;;17.37;;
5811;SDS011;2932;52.400;9.558;2023-04-29T01:45:12;30.20;;;17.50;;
5811;SDS011;2932;52.400;9.558;2023-04-29T01:47:43;31.67;;;18.53;;
5811;SDS011;2932;52.400;9.558;2023-04-29T01:50:11;31.17;;;17.47;;
5811;SDS011;2932;52.400;9.558;2023-04-29T01:52:36;30.30;;;16.83;;
5811;SDS011;2932;52.400;9.558;2023-04-29T01:55:02;34.77;;;18.63;;
5811;SDS011;2932;52.400;9.558;2023-04-29T01:57:28;32.07;;;18.67;;
5811;SDS011;2932;52.400;9.558;2023-04-29T01:59:56;31.30;;;17.70;;
5811;SDS011;2932;52.400;9.558;2023-04-29T02:02:21;30.37;;;17.90;;
5811;SDS011;2932;52.400;9.558;2023-04-29T02:04:47;29.87;;;17.90;;
5811;SDS011;2932;52.400;9.558;2023-04-29T02:07:14;29.40;;;18.53;;
5811;SDS011;2932;52.400;9.558;2023-04-29T02:09:40;25.73;;;16.13;;
5811;SDS011;2932;52.400;9.558;2023-04-29T02:12:05;28.80;;;17.23;;
5811;SDS011;2932;52.400;9.558;2023-04-29T02:14:31;28.77;;;19.27;;
5811;SDS011;2932;52.400;9.558;2023-04-29T02:16:58;28.97;;;19.67;;
5811;SDS011;2932;52.400;9.558;2023-04-29T02:19:23;30.80;;;19.73;;
5811;SDS011;2932;52.400;9.558;2023-04-29T02:21:48;29.23;;;19.67;;
5811;SDS011;2932;52.400;9.558;2023-04-29T02:24:14;28.90;;;19.23;;
5811;SDS011;2932;52.400;9.558;2023-04-29T02:26:39;32.90;;;20.87;;
5811;SDS011;2932;52.400;9.558;2023-04-29T02:29:05;32.33;;;20.27;;
5811;SDS011;2932;52.400;9.558;2023-04-29T02:31:30;34.20;;;21.17;;
5811;SDS011;2932;52.400;9.558;2023-04-29T02:33:56;36.30;;;21.33;;
5811;SDS011;2932;52.400;9.558;2023-04-29T02:36:22;35.37;;;19.83;;
5811;SDS011;2932;52.400;9.558;2023-04-29T02:38:50;29.07;;;19.00;;
5811;SDS011;2932;52.400;9.558;2023-04-29T02:41:18;28.33;;;17.87;;
5811;SDS011;2932;52.400;9.558;2023-04-29T02:43:43;23.47;;;16.93;;
5811;SDS011;2932;52.400;9.558;2023-04-29T02:46:09;25.40;;;17.20;;
5811;SDS011;2932;52.400;9.558;2023-04-29T02:48:35;26.70;;;17.73;;
5811;SDS011;2932;52.400;9.558;2023-04-29T02:51:00;26.03;;;18.40;;
5811;SDS011;2932;52.400;9.558;2023-04-29T02:53:26;27.13;;;19.03;;
5811;SDS011;2932;52.400;9.558;2023-04-29T02:55:51;26.63;;;18.57;;
5811;SDS011;2932;52.400;9.558;2023-04-29T02:58:16;24.33;;;19.27;;
5811;SDS011;2932;52.400;9.558;2023-04-29T03:00:42;25.77;;;19.83;;
5811;SDS011;2932;52.400;9.558;2023-04-29T03:03:07;27.23;;;20.73;;
5811;SDS011;2932;52.400;9.558;2023-04-29T03:05:33;29.93;;;20.93;;
5811;SDS011;2932;52.400;9.558;2023-04-29T03:07:59;26.53;;;20.67;;
5811;SDS011;2932;52.400;9.558;2023-04-29T03:10:24;28.53;;;20.87;;
5811;SDS011;2932;52.400;9.558;2023-04-29T03:12:50;28.83;;;22.43;;
5811;SDS011;2932;52.400;9.558;2023-04-29T03:15:15;26.17;;;21.77;;
5811;SDS011;2932;52.400;9.558;2023-04-29T03:17:41;28.13;;;22.13;;
5811;SDS011;2932;52.400;9.558;2023-04-29T03:20:06;30.60;;;23.00;;
5811;SDS011;2932;52.400;9.558;2023-04-29T03:22:34;33.30;;;24.23;;
5811;SDS011;2932;52.400;9.558;2023-04-29T03:24:59;30.67;;;24.53;;
5811;SDS011;2932;52.400;9.558;2023-04-29T03:27:24;34.10;;;25.33;;
5811;SDS011;2932;52.400;9.558;2023-04-29T03:29:50;34.70;;;24.73;;
5811;SDS011;2932;52.400;9.558;2023-04-29T03:32:15;31.23;;;24.07;;
5811;SDS011;2932;52.400;9.558;2023-04-29T03:34:41;33.13;;;23.47;;
5811;SDS011;2932;52.400;9.558;2023-04-29T03:37:06;32.87;;;24.57;;
5811;SDS011;2932;52.400;9.558;2023-04-29T03:39:32;31.70;;;23.23;;
5811;SDS011;2932;52.400;9.558;2023-04-29T03:41:58;33.80;;;25.53;;
5811;SDS011;2932;52.400;9.558;2023-04-29T03:44:24;32.47;;;24.57;;
5811;SDS011;2932;52.400;9.558;2023-04-29T03:46:50;33.13;;;25.17;;
5811;SDS011;2932;52.400;9.558;2023-04-29T03:49:16;34.07;;;24.73;;
5811;SDS011;2932;52.400;9.558;2023-04-29T03:51:41;32.67;;;25.43;;
5811;SDS011;2932;52.400;9.558;2023-04-29T03:54:09;39.60;;;26.37;;
5811;SDS011;2932;52.400;9.558;2023-04-29T03:56:34;34.90;;;25.30;;
5811;SDS011;2932;52.400;9.558;2023-04-29T03:58:59;38.40;;;26.87;;
5811;SDS011;2932;52.400;9.558;2023-04-29T04:01:25;42.07;;;28.37;;
5811;SDS011;2932;52.400;9.558;2023-04-29T04:03:50;43.63;;;30.40;;
5811;SDS011;2932;52.400;9.558;2023-04-29T04:06:16;45.73;;;29.03;;
5811;SDS011;2932;52.400;9.558;2023-04-29T04:08:41;49.53;;;31.10;;
5811;SDS011;2932;52.400;9.558;2023-04-29T04:11:06;53.10;;;31.50;;
5811;SDS011;2932;52.400;9.558;2023-04-29T04:13:33;47.50;;;30.97;;
5811;SDS011;2932;52.400;9.558;2023-04-29T04:15:59;46.90;;;30.30;;
5811;SDS011;2932;52.400;9.558;2023-04-29T04:18:24;48.60;;;30.17;;
5811;SDS011;2932;52.400;9.558;2023-04-29T04:20:50;51.87;;;31.80;;
5811;SDS011;2932;52.400;9.558;2023-04-29T04:23:15;43.77;;;29.47;;
5811;SDS011;2932;52.400;9.558;2023-04-29T04:25:47;48.93;;;31.73;;
5811;SDS011;2932;52.400;9.558;2023-04-29T04:28:12;50.00;;;30.30;;
5811;SDS011;2932;52.400;9.558;2023-04-29T04:30:38;48.87;;;31.57;;
5811;SDS011;2932;52.400;9.558;2023-04-29T04:33:03;51.33;;;32.00;;
5811;SDS011;2932;52.400;9.558;2023-04-29T04:35:29;50.83;;;32.33;;
5811;SDS011;2932;52.400;9.558;2023-04-29T04:37:55;52.57;;;32.50;;
5811;SDS011;2932;52.400;9.558;2023-04-29T04:40:21;48.37;;;31.67;;
5811;SDS011;2932;52.400;9.558;2023-04-29T04:42:46;49.30;;;31.50;;
5811;SDS011;2932;52.400;9.558;2023-04-29T04:45:12;47.23;;;31.00;;
5811;SDS011;2932;52.400;9.558;2023-04-29T04:47:39;49.13;;;32.00;;
5811;SDS011;2932;52.400;9.558;2023-04-29T04:50:05;49.23;;;31.67;;
5811;SDS011;2932;52.400;9.558;2023-04-29T04:52:31;48.03;;;29.93;;
5811;SDS011;2932;52.400;9.558;2023-04-29T04:54:56;45.17;;;30.07;;
5811;SDS011;2932;52.400;9.558;2023-04-29T04:57:22;42.13;;;28.57;;
5811;SDS011;2932;52.400;9.558;2023-04-29T04:59:47;39.83;;;28.83;;
5811;SDS011;2932;52.400;9.558;2023-04-29T05:02:12;42.13;;;28.23;;
5811;SDS011;2932;52.400;9.558;2023-04-29T05:04:38;38.63;;;27.73;;
5811;SDS011;2932;52.400;9.558;2023-04-29T05:07:03;39.93;;;27.60;;
5811;SDS011;2932;52.400;9.558;2023-04-29T05:09:28;38.10;;;27.13;;
5811;SDS011;2932;52.400;9.558;2023-04-29T05:11:56;34.63;;;26.07;;
5811;SDS011;2932;52.400;9.558;2023-04-29T05:14:23;36.33;;;26.47;;
5811;SDS011;2932;52.400;9.558;2023-04-29T05:16:49;38.50;;;26.67;;
5811;SDS011;2932;52.400;9.558;2023-04-29T05:19:15;33.27;;;23.83;;
5811;SDS011;2932;52.400;9.558;2023-04-29T05:21:40;31.83;;;22.50;;
5811;SDS011;2932;52.400;9.558;2023-04-29T05:24:06;33.10;;;22.70;;
5811;SDS011;2932;52.400;9.558;2023-04-29T05:26:31;30.60;;;21.50;;
5811;SDS011;2932;52.400;9.558;2023-04-29T05:28:56;31.43;;;22.43;;
5811;SDS011;2932;52.400;9.558;2023-04-29T05:31:21;28.03;;;21.73;;
5811;SDS011;2932;52.400;9.558;2023-04-29T05:33:47;30.70;;;22.07;;
5811;SDS011;2932;52.400;9.558;2023-04-29T05:36:12;27.73;;;19.97;;
5811;SDS011;2932;52.400;9.558;2023-04-29T05:38:38;29.20;;;20.73;;
5811;SDS011;2932;52.400;9.558;2023-04-29T05:41:03;29.37;;;20.90;;
5811;SDS011;2932;52.400;9.558;2023-04-29T05:43:29;28.67;;;20.87;;
5811;SDS011;2932;52.400;9.558;2023-04-29T05:45:54;29.70;;;20.37;;
5811;SDS011;2932;52.400;9.558;2023-04-29T05:48:20;29.37;;;19.50;;
5811;SDS011;2932;52.400;9.558;2023-04-29T05:50:45;29.00;;;20.83;;
5811;SDS011;2932;52.400;9.558;2023-04-29T05:53:12;29.80;;;20.53;;
5811;SDS011;2932;52.400;9.558;2023-04-29T05:55:38;30.03;;;20.50;;
5811;SDS011;2932;52.400;9.558;2023-04-29T05:58:03;31.83;;;20.10;;
5811;SDS011;2932;52.400;9.558;2023-04-29T06:00:29;27.37;;;19.47;;
5811;SDS011;2932;52.400;9.558;2023-04-29T06:02:55;27.50;;;19.13;;
5811;SDS011;2932;52.400;9.558;2023-04-29T06:05:21;24.30;;;18.17;;
5811;SDS011;2932;52.400;9.558;2023-04-29T06:07:46;27.93;;;19.50;;
5811;SDS011;2932;52.400;9.558;2023-04-29T06:10:11;24.67;;;18.67;;
5811;SDS011;2932;52.400;9.558;2023-04-29T06:12:37;25.93;;;18.77;;
5811;SDS011;2932;52.400;9.558;2023-04-29T06:15:02;30.37;;;18.17;;
5811;SDS011;2932;52.400;9.558;2023-04-29T06:17:28;24.13;;;17.17;;
5811;SDS011;2932;52.400;9.558;2023-04-29T06:19:56;25.63;;;18.03;;
5811;SDS011;2932;52.400;9.558;2023-04-29T06:22:21;23.00;;;16.87;;
5811;SDS011;2932;52.400;9.558;2023-04-29T06:24:47;24.87;;;17.93;;
5811;SDS011;2932;52.400;9.558;2023-04-29T06:27:14;23.13;;;16.77;;
5811;SDS011;2932;52.400;9.558;2023-04-29T06:29:40;27.17;;;18.80;;
5811;SDS011;2932;52.400;9.558;2023-04-29T06:32:05;24.13;;;18.50;;
5811;SDS011;2932;52.400;9.558;2023-04-29T06:34:31;23.30;;;17.33;;
5811;SDS011;2932;52.400;9.558;2023-04-29T06:36:56;22.57;;;16.53;;
5811;SDS011;2932;52.400;9.558;2023-04-29T06:39:22;21.70;;;16.80;;
5811;SDS011;2932;52.400;9.558;2023-04-29T06:41:47;21.70;;;16.90;;
5811;SDS011;2932;52.400;9.558;2023-04-29T06:44:12;23.33;;;16.67;;
5811;SDS011;2932;52.400;9.558;2023-04-29T06:46:38;19.93;;;15.67;;
5811;SDS011;2932;52.400;9.558;2023-04-29T06:49:03;22.70;;;15.87;;
5811;SDS011;2932;52.400;9.558;2023-04-29T06:51:28;21.87;;;16.43;;
5811;SDS011;2932;52.400;9.558;2023-04-29T06:53:56;21.90;;;14.97;;
5811;SDS011;2932;52.400;9.558;2023-04-29T06:56:21;22.00;;;15.90;;
5811;SDS011;2932;52.400;9.558;2023-04-29T06:58:49;20.27;;;13.50;;
5811;SDS011;2932;52.400;9.558;2023-04-29T07:01:14;15.87;;;13.60;;
5811;SDS011;2932;52.400;9.558;2023-04-29T07:03:40;19.43;;;14.60;;
5811;SDS011;2932;52.400;9.558;2023-04-29T07:06:06;18.50;;;13.97;;
5811;SDS011;2932;52.400;9.558;2023-04-29T07:08:31;18.87;;;15.00;;
5811;SDS011;2932;52.400;9.558;2023-04-29T07:10:57;17.53;;;13.90;;
5811;SDS011;2932;52.400;9.558;2023-04-29T07:13:23;19.17;;;13.47;;
5811;SDS011;2932;52.400;9.558;2023-04-29T07:15:49;20.10;;;14.83;;
5811;SDS011;2932;52.400;9.558;2023-04-29T07:18:15;14.87;;;11.87;;
5811;SDS011;2932;52.400;9.558;2023-04-29T07:20:40;13.17;;;11.37;;
5811;SDS011;2932;52.400;9.558;2023-04-29T07:23:06;15.20;;;11.23;;
5811;SDS011;2932;52.400;9.558;2023-04-29T07:25:31;12.47;;;10.43;;
5811;SDS011;2932;52.400;9.558;2023-04-29T07:27:58;14.77;;;10.77;;
5811;SDS011;2932;52.400;9.558;2023-04-29T07:30:23;13.63;;;10.03;;
5811;SDS011;2932;52.400;9.558;2023-04-29T07:32:49;12.87;;;10.50;;
5811;SDS011;2932;52.400;9.558;2023-04-29T07:35:14;11.70;;;9.73;;
5811;SDS011;2932;52.400;9.558;2023-04-29T07:37:39;13.00;;;9.87;;
5811;SDS011;2932;52.400;9.558;2023-04-29T07:40:05;14.40;;;10.37;;
5811;SDS011;2932;52.400;9.558;2023-04-29T07:42:31;11.97;;;9.73;;
5811;SDS011;2932;52.400;9.558;2023-04-29T07:44:56;9.67;;;8.70;;
5811;SDS011;2932;52.400;9.558;2023-04-29T07:47:22;12.60;;;9.63;;
5811;SDS011;2932;52.400;9.558;2023-04-29T07:49:47;13.13;;;9.47;;
5811;SDS011;2932;52.400;9.558;2023-04-29T07:52:13;10.93;;;9.33;;
5811;SDS011;2932;52.400;9.558;2023-04-29T07:54:38;12.57;;;9.60;;
5811;SDS011;2932;52.400;9.558;2023-04-29T07:57:03;12.23;;;9.67;;
5811;SDS011;2932;52.400;9.558;2023-04-29T07:59:29;11.77;;;8.77;;
5811;SDS011;2932;52.400;9.558;2023-04-29T08:01:55;9.10;;;8.20;;
5811;SDS011;2932;52.400;9.558;2023-04-29T08:04:21;10.60;;;9.03;;
5811;SDS011;2932;52.400;9.558;2023-04-29T08:06:46;11.03;;;8.27;;
5811;SDS011;2932;52.400;9.558;2023-04-29T08:09:12;8.77;;;7.87;;
5811;SDS011;2932;52.400;9.558;2023-04-29T08:11:38;10.97;;;8.43;;
5811;SDS011;2932;52.400;9.558;2023-04-29T08:14:04;9.47;;;8.00;;
5811;SDS011;2932;52.400;9.558;2023-04-29T08:16:30;9.67;;;8.07;;
5811;SDS011;2932;52.400;9.558;2023-04-29T08:18:55;10.17;;;7.43;;
5811;SDS011;2932;52.400;9.558;2023-04-29T08:21:21;9.87;;;7.90;;
5811;SDS011;2932;52.400;9.558;2023-04-29T08:23:46;9.67;;;7.50;;
5811;SDS011;2932;52.400;9.558;2023-04-29T08:26:12;8.80;;;7.30;;
5811;SDS011;2932;52.400;9.558;2023-04-29T08:28:38;10.63;;;8.00;;
5811;SDS011;2932;52.400;9.558;2023-04-29T08:31:03;10.97;;;8.13;;
5811;SDS011;2932;52.400;9.558;2023-04-29T08:33:34;10.90;;;8.47;;
5811;SDS011;2932;52.400;9.558;2023-04-29T08:36:01;10.10;;;8.00;;
5811;SDS011;2932;52.400;9.558;2023-04-29T08:38:28;10.03;;;8.10;;
5811;SDS011;2932;52.400;9.558;2023-04-29T08:40:54;9.30;;;8.07;;
5811;SDS011;2932;52.400;9.558;2023-04-29T08:43:20;12.30;;;8.17;;
5811;SDS011;2932;52.400;9.558;2023-04-29T08:45:46;9.77;;;7.67;;
5811;SDS011;2932;52.400;9.558;2023-04-29T08:48:12;8.65;;;7.22;;
5811;SDS011;2932;52.400;9.558;2023-04-29T08:50:40;9.23;;;7.00;;
5811;SDS011;2932;52.400;9.558;2023-04-29T08:53:06;12.37;;;7.73;;
5811;SDS011;2932;52.400;9.558;2023-04-29T08:55:38;8.50;;;6.63;;
5811;SDS011;2932;52.400;9.558;2023-04-29T08:58:06;9.50;;;7.73;;
5811;SDS011;2932;52.400;9.558;2023-04-29T09:00:33;11.10;;;7.27;;
5811;SDS011;2932;52.400;9.558;2023-04-29T09:02:59;9.93;;;7.37;;
5811;SDS011;2932;52.400;9.558;2023-04-29T09:05:28;8.90;;;6.90;;
5811;SDS011;2932;52.400;9.558;2023-04-29T09:07:56;10.43;;;7.67;;
5811;SDS011;2932;52.400;9.558;2023-04-29T09:10:23;10.43;;;8.20;;
5811;SDS011;2932;52.400;9.558;2023-04-29T09:12:50;10.37;;;7.30;;
5811;SDS011;2932;52.400;9.558;2023-04-29T09:15:15;13.80;;;6.90;;
5811;SDS011;2932;52.400;9.558;2023-04-29T09:17:42;8.70;;;7.40;;
5811;SDS011;2932;52.400;9.558;2023-04-29T09:22:49;11.40;;;7.97;;
5811;SDS011;2932;52.400;9.558;2023-04-29T09:25:19;7.93;;;7.13;;
5811;SDS011;2932;52.400;9.558;2023-04-29T09:27:45;11.10;;;7.47;;
5811;SDS011;2932;52.400;9.558;2023-04-29T09:30:10;12.67;;;8.43;;
5811;SDS011;2932;52.400;9.558;2023-04-29T09:32:37;11.33;;;8.07;;
5811;SDS011;2932;52.400;9.558;2023-04-29T09:35:22;10.93;;;8.23;;
5811;SDS011;2932;52.400;9.558;2023-04-29T09:37:49;10.27;;;8.10;;
5811;SDS011;2932;52.400;9.558;2023-04-29T09:42:54;11.37;;;8.53;;
5811;SDS011;2932;52.400;9.558;2023-04-29T09:45:33;12.57;;;8.97;;
5811;SDS011;2932;52.400;9.558;2023-04-29T09:48:05;11.87;;;9.13;;
5811;SDS011;2932;52.400;9.558;2023-04-29T09:50:32;11.20;;;8.33;;
5811;SDS011;2932;52.400;9.558;2023-04-29T09:52:58;15.27;;;9.00;;
5811;SDS011;2932;52.400;9.558;2023-04-29T09:55:24;10.93;;;8.53;;
5811;SDS011;2932;52.400;9.558;2023-04-29T09:57:51;11.60;;;8.57;;
5811;SDS011;2932;52.400;9.558;2023-04-29T10:00:17;14.10;;;9.17;;
5811;SDS011;2932;52.400;9.558;2023-04-29T10:02:44;11.13;;;9.07;;
5811;SDS011;2932;52.400;9.558;2023-04-29T10:05:11;11.73;;;7.93;;
5811;SDS011;2932;52.400;9.558;2023-04-29T10:07:39;10.70;;;8.17;;
5811;SDS011;2932;52.400;9.558;2023-04-29T10:10:05;11.37;;;8.63;;
5811;SDS011;2932;52.400;9.558;2023-04-29T10:12:32;10.20;;;7.03;;
5811;SDS011;2932;52.400;9.558;2023-04-29T10:15:01;8.50;;;7.40;;
5811;SDS011;2932;52.400;9.558;2023-04-29T10:20:09;8.50;;;7.20;;
5811;SDS011;2932;52.400;9.558;2023-04-29T10:25:11;7.88;;;7.15;;
5811;SDS011;2932;52.400;9.558;2023-04-29T10:27:41;10.27;;;7.15;;
5811;SDS011;2932;52.400;9.558;2023-04-29T10:30:08;9.82;;;6.65;;
5811;SDS011;2932;52.400;9.558;2023-04-29T10:32:36;10.60;;;6.88;;
5811;SDS011;2932;52.400;9.558;2023-04-29T10:35:12;11.70;;;6.70;;
5811;SDS011;2932;52.400;9.558;2023-04-29T10:37:42;10.40;;;6.70;;
5811;SDS011;2932;52.400;9.558;2023-04-29T10:40:16;7.88;;;6.28;;
5811;SDS011;2932;52.400;9.558;2023-04-29T10:47:57;8.68;;;6.03;;
5811;SDS011;2932;52.400;9.558;2023-04-29T10:50:33;8.65;;;6.25;;
5811;SDS011;2932;52.400;9.558;2023-04-29T10:53:19;8.25;;;5.97;;
5811;SDS011;2932;52.400;9.558;2023-04-29T10:55:48;9.30;;;5.93;;
5811;SDS011;2932;52.400;9.558;2023-04-29T11:01:01;9.38;;;6.10;;
5811;SDS011;2932;52.400;9.558;2023-04-29T11:03:46;7.10;;;5.78;;
5811;SDS011;2932;52.400;9.558;2023-04-29T11:06:12;7.95;;;5.80;;
5811;SDS011;2932;52.400;9.558;2023-04-29T11:08:38;12.10;;;6.97;;
5811;SDS011;2932;52.400;9.558;2023-04-29T11:11:04;9.73;;;7.10;;
5811;SDS011;2932;52.400;9.558;2023-04-29T11:13:31;8.57;;;6.53;;
5811;SDS011;2932;52.400;9.558;2023-04-29T11:18:34;10.35;;;7.80;;
5811;SDS011;2932;52.400;9.558;2023-04-29T11:23:29;7.00;;;6.07;;
5811;SDS011;2932;52.400;9.558;2023-04-29T11:25:58;9.38;;;6.70;;
5811;SDS011;2932;52.400;9.558;2023-04-29T11:28:26;8.63;;;6.30;;
5811;SDS011;2932;52.400;9.558;2023-04-29T11:30:52;7.18;;;5.57;;
5811;SDS011;2932;52.400;9.558;2023-04-29T11:33:20;7.13;;;5.53;;
5811;SDS011;2932;52.400;9.558;2023-04-29T11:35:46;8.57;;;5.78;;
5811;SDS011;2932;52.400;9.558;2023-04-29T11:38:14;6.45;;;5.05;;
5811;SDS011;2932;52.400;9.558;2023-04-29T11:40:49;7.90;;;5.93;;
5811;SDS011;2932;52.400;9.558;2023-04-29T11:43:18;13.27;;;5.80;;
5811;SDS011;2932;52.400;9.558;2023-04-29T11:45:44;7.15;;;5.22;;
5811;SDS011;2932;52.400;9.558;2023-04-29T11:48:19;7.20;;;5.90;;
5811;SDS011;2932;52.400;9.558;2023-04-29T11:50:53;7.75;;;5.57;;
5811;SDS011;2932;52.400;9.558;2023-04-29T11:53:25;7.78;;;4.95;;
5811;SDS011;2932;52.400;9.558;2023-04-29T11:55:54;8.20;;;5.13;;
5811;SDS011;2932;52.400;9.558;2023-04-29T11:58:21;6.55;;;4.95;;
5811;SDS011;2932;52.400;9.558;2023-04-29T12:00:47;6.45;;;5.75;;
5811;SDS011;2932;52.400;9.558;2023-04-29T12:03:14;10.73;;;5.68;;
5811;SDS011;2932;52.400;9.558;2023-04-29T12:05:45;8.45;;;6.35;;
5811;SDS011;2932;52.400;9.558;2023-04-29T12:10:49;7.90;;;4.72;;
5811;SDS011;2932;52.400;9.558;2023-04-29T12:13:16;6.68;;;4.88;;
5811;SDS011;2932;52.400;9.558;2023-04-29T12:15:43;8.25;;;4.90;;
5811;SDS011;2932;52.400;9.558;2023-04-29T12:18:10;8.68;;;5.47;;
5811;SDS011;2932;52.400;9.558;2023-04-29T12:20:36;6.97;;;4.85;;
5811;SDS011;2932;52.400;9.558;2023-04-29T12:25:37;5.80;;;4.60;;
5811;SDS011;2932;52.400;9.558;2023-04-29T12:28:03;6.10;;;4.63;;
5811;SDS011;2932;52.400;9.558;2023-04-29T12:30:29;7.72;;;4.50;;
5811;SDS011;2932;52.400;9.558;2023-04-29T12:32:54;5.85;;;3.53;;
5811;SDS011;2932;52.400;9.558;2023-04-29T12:35:20;4.78;;;3.42;;
5811;SDS011;2932;52.400;9.558;2023-04-29T12:37:49;4.65;;;3.38;;
5811;SDS011;2932;52.400;9.558;2023-04-29T12:40:15;5.05;;;3.80;;
5811;SDS011;2932;52.400;9.558;2023-04-29T12:42:41;4.28;;;3.88;;
5811;SDS011;2932;52.400;9.558;2023-04-29T12:45:24;5.00;;;3.30;;
5811;SDS011;2932;52.400;9.558;2023-04-29T12:47:59;5.25;;;3.22;;
5811;SDS011;2932;52.400;9.558;2023-04-29T12:50:31;3.80;;;2.80;;
5811;SDS011;2932;52.400;9.558;2023-04-29T12:52:57;3.28;;;2.95;;
5811;SDS011;2932;52.400;9.558;2023-04-29T12:55:23;4.03;;;3.20;;
5811;SDS011;2932;52.400;9.558;2023-04-29T12:57:48;5.95;;;3.58;;
5811;SDS011;2932;52.400;9.558;2023-04-29T13:00:14;3.25;;;2.90;;
5811;SDS011;2932;52.400;9.558;2023-04-29T13:02:40;4.50;;;3.00;;
5811;SDS011;2932;52.400;9.558;2023-04-29T13:05:06;5.43;;;3.50;;
5811;SDS011;2932;52.400;9.558;2023-04-29T13:07:32;5.40;;;3.53;;
5811;SDS011;2932;52.400;9.558;2023-04-29T13:09:58;4.72;;;3.30;;
5811;SDS011;2932;52.400;9.558;2023-04-29T13:12:23;5.82;;;3.38;;
5811;SDS011;2932;52.400;9.558;2023-04-29T13:14:48;4.13;;;3.13;;
5811;SDS011;2932;52.400;9.558;2023-04-29T13:17:15;4.90;;;3.50;;
5811;SDS011;2932;52.400;9.558;2023-04-29T13:19:40;4.10;;;3.63;;
5811;SDS011;2932;52.400;9.558;2023-04-29T13:22:06;6.40;;;3.95;;
5811;SDS011;2932;52.400;9.558;2023-04-29T13:24:31;6.05;;;3.60;;
5811;SDS011;2932;52.400;9.558;2023-04-29T13:26:59;4.35;;;2.92;;
5811;SDS011;2932;52.400;9.558;2023-04-29T13:29:26;5.60;;;2.88;;
5811;SDS011;2932;52.400;9.558;2023-04-29T13:31:52;6.80;;;3.10;;
5811;SDS011;2932;52.400;9.558;2023-04-29T13:34:17;4.97;;;3.55;;
5811;SDS011;2932;52.400;9.558;2023-04-29T13:36:45;5.50;;;3.80;;
5811;SDS011;2932;52.400;9.558;2023-04-29T13:39:11;5.82;;;3.55;;
5811;SDS011;2932;52.400;9.558;2023-04-29T13:41:36;5.75;;;4.35;;
5811;SDS011;2932;52.400;9.558;2023-04-29T13:44:01;5.47;;;4.57;;
5811;SDS011;2932;52.400;9.558;2023-04-29T13:46:27;9.88;;;5.25;;
5811;SDS011;2932;52.400;9.558;2023-04-29T13:48:52;6.78;;;5.43;;
5811;SDS011;2932;52.400;9.558;2023-04-29T13:51:18;9.32;;;6.40;;
5811;SDS011;2932;52.400;9.558;2023-04-29T13:53:43;6.95;;;5.05;;
5811;SDS011;2932;52.400;9.558;2023-04-29T13:56:09;6.38;;;5.05;;
5811;SDS011;2932;52.400;9.558;2023-04-29T13:58:34;7.97;;;4.80;;
5811;SDS011;2932;52.400;9.558;2023-04-29T14:01:02;7.13;;;5.03;;
5811;SDS011;2932;52.400;9.558;2023-04-29T14:03:27;6.32;;;5.03;;
5811;SDS011;2932;52.400;9.558;2023-04-29T14:05:53;5.75;;;4.93;;
5811;SDS011;2932;52.400;9.558;2023-04-29T14:08:18;8.20;;;4.55;;
5811;SDS011;2932;52.400;9.558;2023-04-29T14:10:44;6.15;;;5.40;;
5811;SDS011;2932;52.400;9.558;2023-04-29T14:13:09;7.43;;;5.15;;
5811;SDS011;2932;52.400;9.558;2023-04-29T14:15:34;6.90;;;4.88;;
5811;SDS011;2932;52.400;9.558;2023-04-29T14:18:03;5.40;;;4.50;;
5811;SDS011;2932;52.400;9.558;2023-04-29T14:20:28;7.13;;;4.53;;
5811;SDS011;2932;52.400;9.558;2023-04-29T14:22:53;6.32;;;4.05;;
5811;SDS011;2932;52.400;9.558;2023-04-29T14:25:19;5.55;;;4.32;;
5811;SDS011;2932;52.400;9.558;2023-04-29T14:27:44;6.65;;;4.53;;
5811;SDS011;2932;52.400;9.558;2023-04-29T14:30:09;5.05;;;4.07;;
5811;SDS011;2932;52.400;9.558;2023-04-29T14:32:35;3.65;;;3.20;;
5811;SDS011;2932;52.400;9.558;2023-04-29T14:35:01;4.18;;;3.20;;
5811;SDS011;2932;52.400;9.558;2023-04-29T14:37:26;8.05;;;3.60;;
5811;SDS011;2932;52.400;9.558;2023-04-29T14:39:51;5.13;;;3.30;;
5811;SDS011;2932;52.400;9.558;2023-04-29T14:42:17;5.15;;;3.10;;
5811;SDS011;2932;52.400;9.558;2023-04-29T14:44:42;7.00;;;2.90;;
5811;SDS011;2932;52.400;9.558;2023-04-29T14:47:08;3.40;;;2.65;;
5811;SDS011;2932;52.400;9.558;2023-04-29T14:49:33;3.47;;;2.78;;
5811;SDS011;2932;52.400;9.558;2023-04-29T14:51:59;3.10;;;2.67;;
5811;SDS011;2932;52.400;9.558;2023-04-29T14:54:24;3.13;;;2.28;;
5811;SDS011;2932;52.400;9.558;2023-04-29T14:56:51;2.58;;;2.10;;
5811;SDS011;2932;52.400;9.558;2023-04-29T14:59:16;3.15;;;2.10;;
5811;SDS011;2932;52.400;9.558;2023-04-29T15:01:41;3.45;;;1.92;;
5811;SDS011;2932;52.400;9.558;2023-04-29T15:04:07;3.33;;;2.35;;
5811;SDS011;2932;52.400;9.558;2023-04-29T15:06:32;2.67;;;2.40;;
5811;SDS011;2932;52.400;9.558;2023-04-29T15:09:01;3.20;;;1.98;;
5811;SDS011;2932;52.400;9.558;2023-04-29T15:11:26;3.40;;;2.30;;
5811;SDS011;2932;52.400;9.558;2023-04-29T15:13:51;5.28;;;2.58;;
5811;SDS011;2932;52.400;9.558;2023-04-29T15:16:17;3.65;;;2.53;;
5811;SDS011;2932;52.400;9.558;2023-04-29T15:18:42;2.95;;;2.15;;
5811;SDS011;2932;52.400;9.558;2023-04-29T15:21:07;4.18;;;2.47;;
5811;SDS011;2932;52.400;9.558;2023-04-29T15:23:33;5.35;;;2.70;;
5811;SDS011;2932;52.400;9.558;2023-04-29T15:25:58;5.47;;;2.40;;
5811;SDS011;2932;52.400;9.558;2023-04-29T15:28:24;3.10;;;2.30;;
5811;SDS011;2932;52.400;9.558;2023-04-29T15:30:50;4.03;;;2.20;;
5811;SDS011;2932;52.400;9.558;2023-04-29T15:33:15;3.92;;;2.58;;
5811;SDS011;2932;52.400;9.558;2023-04-29T15:35:40;7.68;;;3.22;;